^^

METAR Αεροδρομίων

σε ακτίνα 500 χλμ


 Τι είναι το METAR ??? 

Πρώτο είναι το πλησιέστερο αεροδρόμιο (Θεσ/νίκη LGTS 6χλμ) και
τέλος το πιο απομακρυσμένο (Κων/πολη LTBA 494χλμ).
Επίσης μερικές αναφορές, παρουσιάζουν λιγότερα στοιχεία γιατί
οι αρχικές είναι ελλιπείς ή έχουν λάθος μορφοποίηση.
Πηγαίνετε στις Αναφορές METAR από Μετεωρολογικούς Σταθμούς )  
Αλφαβητική Λίστα Γρήγορης Μετάβασης στα 48 Αεροδρόμια
Αλβανία: Τίρανα  Βουλγαρία: Γκόρνα Οριαχόβιτσα  Μπουργκάς  Σόφια  Φιλιππούπολη  Ελλάδα: Αθήνα  Αλεξανδρούπολη  Ανδραβίδα  Βόλος  Ελευσίνα  Ζάκυνθος  Θεσσαλονίκη  Ιωάννινα  Καβάλα  Καλαμάτα  Κέρκυρα  Κεφαλονιά  Κοζάνη  Κύθηρα
Λέσβος  Λήμνος  Μύκονος  Νάξος  Πάρος  Πάτρα  Πρέβεζα  Σάμος  Σκιάθος  Σκύρος  Σύρος  Χίος  Ιταλία: Γκαλατίνα  Μπρίντιζι  Σάντα Μαρία ντι Λέουκα  Ταράντο  Κόσοβο: Πρίστινα  Κροατία: Ντουμπρόβνικ  Μαυροβούνιο: Ποντγκόριτσα  Τιβάτ
Δ.Β.Μ: Οχρίδα  Σκόπια  Ρουμανία: Κραϊόβα  Σερβία: Κράλιεβο  Νις  Ούζιτσε  Τουρκία: Κωνσταντινούπολη  Σμύρνη Τσορλού 
(ΒΠΑ)Βάση Πολεμικής Αεροπορίας
LGTS - Αεροδρόμιο "Μακεδονία"
Θεσσαλονίκη - Κεντρική Μακεδονία - Ελλάδα
Γ.Πλάτ: 40.5167 - Γ.Μήκ: 22.9667 - Υψόμ: 7μ
Απόσταση από το Vouhead Weather: (Ν) 6χλμ
Ενημερώθηκε: 17/11/2019 02:20
Διάσπαρτα νέφη
Διάσπαρτα νέφη
 Άνεμος από ΑΝΑ
Άνεμος: ΑΝΑ 7 km/h
Θερμοκρασία: 11°C
Σημ. Δρόσου: 11°C
Υγρασία: 100%
Βαρόμετρο: 1021 hPa
Σύννεφα: Διάσπαρτα νέφη
Ορατότητα: 10 km
Ανάλυση νέφωσης: Διάσπαρτα νέφη 762 m
2019/11/17 00:20 LGTS 170020Z 11004KT 9999 FEW025 11/11 Q1021 NOSIG
LGKZ - Αεροδρόμιο "Φίλιππος"
Κοζάνη - Δυτική Μακεδονία - Ελλάδα
Γ.Πλάτ: 40.2833 - Γ.Μήκ: 21.8333 - Υψόμ: 628μ
Απόσταση από το Vouhead Weather: (ΔΝΔ) 102χλμ
Ενημερώθηκε: 16/11/2019 18:50
ΜΗ ΠΡΟΣΦΑΤΟ METAR

 Άνεμος από calm
Άνεμος: Απνοια
Θερμοκρασία: 10°C
Σημ. Δρόσου: 10°C
Υγρασία: 100%
Βαρόμετρο: 1021 hPa
2019/11/16 16:50 LGKZ 161650Z AUTO 00000KT //// // ////// 10/10 Q1021 RE//
 
LGKV - Αεροδρόμιο "Μέγας Αλέξανδρος"
Καβάλα(Χρυσούπολη) - Α. Μακεδονία & Θράκη - Ελλάδα
Γ.Πλάτ: 40.9167 - Γ.Μήκ: 24.6167 - Υψόμ: 5μ
Απόσταση από το Vouhead Weather: (ΑΒΑ) 144χλμ
Ενημερώθηκε: 17/11/2019 01:50
Διάσπαρτα νέφη
Διάσπαρτα νέφη
 Άνεμος από ΝΑ
Άνεμος: ΝΑ 4 km/h
Θερμοκρασία: 11°C
Σημ. Δρόσου: 10°C
Υγρασία: 94%
Βαρόμετρο: 1019 hPa
Σύννεφα: Διάσπαρτα νέφη
Ορατότητα: 10 km
Ανάλυση νέφωσης: Διάσπαρτα νέφη 610 m
2019/11/16 23:50 LGKV 162350Z 14002KT 9999 FEW020 11/10 Q1019
LGBL - Αεροδρόμιο στη Νέα Αγχίαλο
Βόλος(Αλμυρός) - Θεσσαλία - Ελλάδα
Γ.Πλάτ: 39.2167 - Γ.Μήκ: 22.8000 - Υψόμ: 26μ
Απόσταση από το Vouhead Weather: (Ν) 151χλμ
Ενημερώθηκε: 17/11/2019 01:50
Διάσπαρτα νέφη
Διάσπαρτα νέφη
 Άνεμος από Δ
Άνεμος: Δ 7 km/h
Θερμοκρασία: 12°C
Σημ. Δρόσου: 11°C
Υγρασία: 94%
Βαρόμετρο: 1020 hPa
Σύννεφα: Διάσπαρτα νέφη
Ορατότητα: 10 km
Ανάλυση νέφωσης: Διάσπαρτα νέφη 762 m
2019/11/16 23:50 LGBL 162350Z 27004KT 9999 FEW025 12/11 Q1020
 
LGSK - Αεροδρόμ. "Αλέξανδρος Παπαδιαμάντης"
Σκιάθος - Θεσσαλία(Σποράδες) - Ελλάδα
Γ.Πλάτ: 39.1833 - Γ.Μήκ: 23.5000 - Υψόμ: 15μ
Απόσταση από το Vouhead Weather: (ΝΝΑ) 160χλμ
Ενημερώθηκε: 16/11/2019 15:50
ΜΗ ΠΡΟΣΦΑΤΟ METAR
Μερικώς νεφελώδης
Μερικώς νεφελώδης
 Άνεμος από ΒΒΑ
Άνεμος: ΒΒΑ 9 km/h
Θερμοκρασία: 21°C
Σημ. Δρόσου: 12°C
Υγρασία: 57%
Βαρόμετρο: 1019 hPa
Σύννεφα: Μερικώς νεφελώδης
Ορατότητα: 10 km
Ανάλυση νέφωσης: Μερικώς νεφελώδης 610 m
2019/11/16 13:50 LGSK 161350Z 03005KT 9999 SCT020 21/12 Q1019
LWSK - Αεροδρόμιο "Σκόπγιε Ιντερνάσιοναλ Έιρπορτ"
Σκόπια(Πέτροβακ) - Περιφέρεια Σκοπίων - Δ.Β.Μ
Γ.Πλάτ: 41.9667 - Γ.Μήκ: 21.6333 - Υψόμ: 239μ
Απόσταση από το Vouhead Weather: (ΒΔ) 192χλμ
Ενημερώθηκε: 17/11/2019 02:30
Αίθριος
Αίθριος
 Άνεμος από calm
Άνεμος: Απνοια
Θερμοκρασία: 7°C
Σημ. Δρόσου: 7°C
Υγρασία: 100%
Βαρόμετρο: 1021 hPa
Περίληψη: Αίθριος
Ορατότητα: Μεγαλύτερη από 10 km
2019/11/17 00:30 LWSK 170030Z 00000KT CAVOK 07/07 Q1021 NOSIG
 
LWOH - Αεροδρόμιο "Σεντ Πολ Δε Απόστλ"
Οχρίδα - Νοτιοδυτική Περιφέρεια - Δ.Β.Μ
Γ.Πλάτ: 41.9667 - Γ.Μήκ: 21.6333 - Υψόμ: 239μ
Απόσταση από το Vouhead Weather: (ΔΒΔ) 193χλμ
Ενημερώθηκε: 16/11/2019 22:30
ΜΗ ΠΡΟΣΦΑΤΟ METAR
Μερικώς νεφελώδης
Μερικώς νεφελώδης
 Άνεμος από ΒΔ
Άνεμος: ΒΔ 6 km/h
Θερμοκρασία: 6°C
Σημ. Δρόσου: 5°C
Υγρασία: 93%
Βαρόμετρο: 1020 hPa
Σύννεφα: Μερικώς νεφελώδης
Ορατότητα: 10 km
Ανάλυση νέφωσης: Διάσπαρτα νέφη 1219 m
Μερικώς νεφελώδης 2743 m
2019/11/16 20:30 LWOH 162030Z 31003KT 9999 FEW040 SCT090 06/05 Q1020
LGLM - Αεροδρόμιο "Ήφαιστος"
Λήμνος - Βόρειο Αιγαίο - Ελλάδα
Γ.Πλάτ: 39.9167 - Γ.Μήκ: 25.2333 - Υψόμ: 5μ
Απόσταση από το Vouhead Weather: (ΑΝΑ) 205χλμ
Ενημερώθηκε: 17/11/2019 01:50
Διάσπαρτα νέφη
Διάσπαρτα νέφη
 Άνεμος από ΒΒΑ
Άνεμος: ΒΒΑ 7 km/h
Θερμοκρασία: 17°C
Σημ. Δρόσου: 15°C
Υγρασία: 88%
Βαρόμετρο: 1018 hPa
Σύννεφα: Διάσπαρτα νέφη
Ορατότητα: 10 km
Ανάλυση νέφωσης: Διάσπαρτα νέφη 427 m
2019/11/16 23:50 LGLM 162350Z 03004KT 9999 FEW014 17/15 Q1018
 
LGIO - Αεροδρόμιο "Βασιλεύς Πύρρος"
Ιωάννινα - Ήπειρος - Ελλάδα
Γ.Πλάτ: 39.7000 - Γ.Μήκ: 20.8167 - Υψόμ: 476μ
Απόσταση από το Vouhead Weather: (ΔΝΔ) 207χλμ
Ενημερώθηκε: 17/11/2019 02:20

 Άνεμος από Μεταβλητός
Άνεμος: Μεταβλητός 4 km/h
Θερμοκρασία: 7°C
Σημ. Δρόσου: 7°C
Υγρασία: 100%
Βαρόμετρο: 1019 hPa
2019/11/17 00:20 LGIO 170020Z AUTO VRB02KT //// // ////// 07/07 Q1019 RE//
LGSY - Αεροδρόμιο στη Σκύρο
Σκύρος - Θεσσαλία(Σποράδες) - Ελλάδα
Γ.Πλάτ: 38.9667 - Γ.Μήκ: 24.4833 - Υψόμ: 15μ
Απόσταση από το Vouhead Weather: (ΝΑ) 220χλμ
Ενημερώθηκε: 17/11/2019 01:50
Μερικώς νεφελώδης
Μερικώς νεφελώδης
 Άνεμος από ΒΒΑ
Άνεμος: ΒΒΑ 13 km/h
Θερμοκρασία: 18°C
Σημ. Δρόσου: 15°C
Υγρασία: 83%
Βαρόμετρο: 1019 hPa
Σύννεφα: Μερικώς νεφελώδης
Ορατότητα: 10 km
Ανάλυση νέφωσης: Μερικώς νεφελώδης 610 m
2019/11/16 23:50 LGSY 162350Z 03007KT 9999 SCT020 18/15 Q1019 RMK FEW080 BKN180 BLU
 
LBPD - Αεροδρόμιο στη Φιλιππούπολη
Φιλιππούπολη(Κρούμοβο) - Πλόβντιβ - Βουλγαρία
Γ.Πλάτ: 42.1333 - Γ.Μήκ: 24.8000 - Υψόμ: 185μ
Απόσταση από το Vouhead Weather: (ΒΑ) 231χλμ
Ενημερώθηκε: 17/11/2019 02:30
Ομίχλη, Νεφοσκεπής
Ομίχλη, Νεφοσκεπής
 Άνεμος από Ν
Άνεμος: Ν 6 km/h
Θερμοκρασία: 7°C
Σημ. Δρόσου: 7°C
Υγρασία: 100%
Βαρόμετρο: 1022 hPa
Περίληψη: Ομίχλη
Σύννεφα: Νεφοσκεπής
Ορατότητα: 0 km
Ανάλυση νέφωσης: Μερικώς νεφελώδης 61 m
Νεφοσκεπής 152 m
2019/11/17 00:30 LBPD 170030Z AUTO 18003KT 0450 R30/0500N FG SCT002 OVC005 07/07 Q1022
LBSF - Αεροδρόμιο στη Σόφια
Σόφια(Βράτσντεμπνα) - Μητρ. περ. Σόφιας - Βουλγαρία
Γ.Πλάτ: 42.6500 - Γ.Μήκ: 23.3833 - Υψόμ: 595μ
Απόσταση από το Vouhead Weather: (Β) 234χλμ
Ενημερώθηκε: 17/11/2019 02:30
Μερικώς νεφελώδης
Μερικώς νεφελώδης
 Άνεμος από calm
Άνεμος: Απνοια
Θερμοκρασία: 8°C
Σημ. Δρόσου: 6°C
Υγρασία: 87%
Βαρόμετρο: 1022 hPa
Σύννεφα: Μερικώς νεφελώδης
Ορατότητα: 7 km
2019/11/17 00:30 LBSF 170030Z 00000KT 7000 NSC 08/06 Q1022 TEMPO 3000 BR
 
LGAL - Αεροδρόμιο "Δημόκριτος"
Αλεξανδρούπολη - Α. Μακεδονία & Θράκη - Ελλάδα
Γ.Πλάτ: 40.8500 - Γ.Μήκ: 25.9167 - Υψόμ: 3μ
Απόσταση από το Vouhead Weather: (Α) 250χλμ
Ενημερώθηκε: 16/11/2019 19:50
ΜΗ ΠΡΟΣΦΑΤΟ METAR
Διάσπαρτα νέφη
Διάσπαρτα νέφη
 Άνεμος από Μεταβλητός
Άνεμος: Μεταβλητός 6 km/h
Θερμοκρασία: 15°C
Σημ. Δρόσου: 12°C
Υγρασία: 82%
Βαρόμετρο: 1020 hPa
Σύννεφα: Διάσπαρτα νέφη
Ορατότητα: 10 km
Ανάλυση νέφωσης: Διάσπαρτα νέφη 610 m
2019/11/16 17:50 LGAL 161750Z VRB03KT 9999 FEW020 15/12 Q1020
BKPR - Αεροδρόμιο "Αντεμ Γιασάρι"
Πρίστινα - Πρίστινα - Κόσοβο
(Ελληνικό Υπουργείο Εξωτερικών, σχετικά με το Κόσοβο)
Γ.Πλάτ: 42.5833 - Γ.Μήκ: 21.0333 - Υψόμ: 576μ
Απόσταση από το Vouhead Weather: (ΒΔ) 276χλμ
Ενημερώθηκε: 17/11/2019 02:30
Αίθριος
Αίθριος
 Άνεμος από Μεταβλητός
Άνεμος: Μεταβλητός 6 km/h
Θερμοκρασία: 10°C
Σημ. Δρόσου: 6°C
Υγρασία: 76%
Βαρόμετρο: 1019 hPa
Περίληψη: Αίθριος
Ορατότητα: Μεγαλύτερη από 10 km
2019/11/17 00:30 BKPR 170030Z VRB03KT CAVOK 10/06 Q1019 NOSIG RMK 17010095
 
LGKR - Αεροδρόμιο "Ιωάννης Καποδίστριας"
Κέρκυρα - Ιόνιοι Νήσοι - Ελλάδα
Γ.Πλάτ: 39.6000 - Γ.Μήκ: 19.9167 - Υψόμ: 2μ
Απόσταση από το Vouhead Weather: (ΔΝΔ) 281χλμ
Ενημερώθηκε: 17/11/2019 02:20
Μερικώς νεφελώδης
Μερικώς νεφελώδης
 Άνεμος από ΑΝΑ
Άνεμος: ΑΝΑ 15 km/h
Θερμοκρασία: 19°C
Σημ. Δρόσου: 14°C
Υγρασία: 73%
Βαρόμετρο: 1017 hPa
Σύννεφα: Μερικώς νεφελώδης
Ορατότητα: 10 km
Ανάλυση νέφωσης: Μερικώς νεφελώδης 914 m
Μερικώς νεφελώδης 2438 m
2019/11/17 00:20 LGKR 170020Z 12008KT 9999 SCT030 SCT080 19/14 Q1017 NOSIG
LATI - Αεροδρόμιο "Μάδερ Τερέζα"
Τίρανα(Ρίνα) - Τίρανα - Αλβανία
Γ.Πλάτ: 41.3167 - Γ.Μήκ: 19.7667 - Υψόμ: 90μ
Απόσταση από το Vouhead Weather: (ΔΒΔ) 282χλμ
Ενημερώθηκε: 17/11/2019 02:20
Διάσπαρτα νέφη
Διάσπαρτα νέφη
 Άνεμος από Ν
Άνεμος: Ν 11 km/h
Θερμοκρασία: 11°C
Σημ. Δρόσου: 9°C
Υγρασία: 88%
Βαρόμετρο: 1016 hPa
Σύννεφα: Διάσπαρτα νέφη
Ορατότητα: 10 km
Ανάλυση νέφωσης: Διάσπαρτα νέφη 5791 m
2019/11/17 00:20 LATI 170020Z 17006KT 9999 FEW190 11/09 Q1016 NOSIG
 
LGEL - Αεροδρόμιο στην Ελευσίνα(ΒΠΑ)
Ελευσίνα - Αττική - Ελλάδα
Γ.Πλάτ: 38.0667 - Γ.Μήκ: 23.5500 - Υψόμ: 31μ
Απόσταση από το Vouhead Weather: (Ν) 282χλμ
Ενημερώθηκε: 17/11/2019 02:20
Διάσπαρτα νέφη
Διάσπαρτα νέφη
 Άνεμος από calm
Άνεμος: Απνοια
Θερμοκρασία: 13°C
Σημ. Δρόσου: 11°C
Υγρασία: 88%
Βαρόμετρο: 1017 hPa
Σύννεφα: Διάσπαρτα νέφη
Ορατότητα: 10 km
Ανάλυση νέφωσης: Διάσπαρτα νέφη 762 m
2019/11/17 00:20 LGEL 170020Z 00000KT 9999 FEW025 13/11 Q1017
LGPZ - Αεροδρόμιο στη Πρέβεζα
Πρέβεζα(Ακτιον) - Ήπειρος - Ελλάδα
Γ.Πλάτ: 38.6167 - Γ.Μήκ: 20.7667 - Υψόμ: 4μ
Απόσταση από το Vouhead Weather: (ΝΔ) 288χλμ
Ενημερώθηκε: 17/11/2019 01:50
Διάσπαρτα νέφη
Διάσπαρτα νέφη
 Άνεμος από ΑΒΑ
Άνεμος: ΑΒΑ 11 km/h
Θερμοκρασία: 17°C
Σημ. Δρόσου: 11°C
Υγρασία: 68%
Βαρόμετρο: 1017 hPa
Σύννεφα: Διάσπαρτα νέφη
Ορατότητα: 10 km
Ανάλυση νέφωσης: Διάσπαρτα νέφη 610 m
2019/11/16 23:50 LGPZ 162350Z 06006KT 9999 FEW020 17/11 Q1017
 
LGRX - Αεροδρόμιο στη Πάτρα(ΒΠΑ)
Πάτρα(Αραξος) - Δυτική Ελλάδα - Ελλάδα
Γ.Πλάτ: 38.1667 - Γ.Μήκ: 21.4167 - Υψόμ: 15μ
Απόσταση από το Vouhead Weather: (ΝΝΔ) 299χλμ
Ενημερώθηκε: 17/11/2019 01:50
Διάσπαρτα νέφη
Διάσπαρτα νέφη
 Άνεμος από calm
Άνεμος: Απνοια
Θερμοκρασία: 14°C
Σημ. Δρόσου: 12°C
Υγρασία: 88%
Βαρόμετρο: 1017 hPa
Σύννεφα: Διάσπαρτα νέφη
Ορατότητα: 10 km
Ανάλυση νέφωσης: Διάσπαρτα νέφη 2134 m
2019/11/16 23:50 LGRX 162350Z 00000KT 9999 FEW070 14/12 Q1017
LGAV - Αεροδρόμιο "Ελευθέριος Βεμιζέλος"
Αθήνα(Σπάτα) - Αττική - Ελλάδα
Γ.Πλάτ: 37.9333 - Γ.Μήκ: 23.9500 - Υψόμ: 94μ
Απόσταση από το Vouhead Weather: (ΝΝΑ) 305χλμ
Ενημερώθηκε: 17/11/2019 02:20
Μερικώς νεφελώδης
Μερικώς νεφελώδης
 Άνεμος από Δ
Άνεμος: Δ 4 km/h
Θερμοκρασία: 12°C
Σημ. Δρόσου: 10°C
Υγρασία: 88%
Βαρόμετρο: 1019 hPa
Σύννεφα: Μερικώς νεφελώδης
Ορατότητα: 10 km
Ανάλυση νέφωσης: Μερικώς νεφελώδης 762 m
2019/11/17 00:20 LGAV 170020Z 27002KT 9999 SCT025 12/10 Q1019 NOSIG
 
LYNI - Αεροδρόμιο "Κονσταντίν Δε Γκρέιτ"
Νις - Νότια και Ανατολική Σερβία - Σερβία
Γ.Πλάτ: 43.3167 - Γ.Μήκ: 21.8833 - Υψόμ: 202μ
Απόσταση από το Vouhead Weather: (ΒΒΔ) 319χλμ
Ενημερώθηκε: 17/11/2019 02:30
Αίθριος
Αίθριος
 Άνεμος από Α
Άνεμος: Α 26 km/h
Θερμοκρασία: 13°C
Σημ. Δρόσου: 8°C
Υγρασία: 72%
Βαρόμετρο: 1019 hPa
Περίληψη: Αίθριος
Ορατότητα: Μεγαλύτερη από 10 km
2019/11/17 00:30 LYNI 170030Z 10014KT CAVOK 13/08 Q1019 NOSIG
LGAD - Αεροδρόμιο στην Ανδραβίδα(ΒΠΑ)
Ανδραβίδα - Δυτική Ελλάδα - Ελλάδα
Γ.Πλάτ: 37.9167 - Γ.Μήκ: 21.2667 - Υψόμ: 12μ
Απόσταση από το Vouhead Weather: (ΝΝΔ) 329χλμ
Ενημερώθηκε: 17/11/2019 02:20
Διάσπαρτα νέφη
Διάσπαρτα νέφη
 Άνεμος από calm
Άνεμος: Απνοια
Θερμοκρασία: 15°C
Σημ. Δρόσου: 11°C
Υγρασία: 77%
Βαρόμετρο: 1017 hPa
Σύννεφα: Διάσπαρτα νέφη
Ορατότητα: 10 km
Ανάλυση νέφωσης: Διάσπαρτα νέφη 2438 m
2019/11/17 00:20 LGAD 170020Z 00000KT 9999 FEW080 15/11 Q1017
 
LGKF - Αεροδρόμιο στην Κεφαλονιά
Κεφαλονιά - Ιόνιοι Νήσοι - Ελλάδα
Γ.Πλάτ: 38.1167 - Γ.Μήκ: 20.5000 - Υψόμ: 18μ
Απόσταση από το Vouhead Weather: (ΝΔ) 346χλμ
Ενημερώθηκε: 16/11/2019 19:50
ΜΗ ΠΡΟΣΦΑΤΟ METAR
Κυρίως νεφελώδης
Κυρίως νεφελώδης
 Άνεμος από ΝΑ
Άνεμος: ΝΑ 22 km/h
Θερμοκρασία: 17°C
Σημ. Δρόσου: 15°C
Υγρασία: 88%
Βαρόμετρο: 1018 hPa
Σύννεφα: Κυρίως νεφελώδης
Ορατότητα: 10 km
Ανάλυση νέφωσης: Διάσπαρτα νέφη 457 m
Μερικώς νεφελώδης 610 m
Κυρίως νεφελώδης 2134 m
2019/11/16 17:50 LGKF 161750Z 14012KT 9999 FEW015 SCT020 BKN070 17/15 Q1018
LGMT - Αεροδρόμιο "Οδυσσέας Ελύτης"
Λέσβος - Βόρειο Αιγαίο - Ελλάδα
Γ.Πλάτ: 39.0500 - Γ.Μήκ: 26.6000 - Υψόμ: 17μ
Απόσταση από το Vouhead Weather: (ΑΝΑ) 353χλμ
Ενημερώθηκε: 16/11/2019 19:50
ΜΗ ΠΡΟΣΦΑΤΟ METAR
Αίθριος
Αίθριος
 Άνεμος από ΔΒΔ
Άνεμος: ΔΒΔ 7 km/h
Θερμοκρασία: 17°C
Σημ. Δρόσου: 12°C
Υγρασία: 73%
Βαρόμετρο: 1019 hPa
Περίληψη: Αίθριος
Ορατότητα: Μεγαλύτερη από 10 km
2019/11/16 17:50 LGMT 161750Z 29004KT CAVOK 17/12 Q1019
 
LGZA - Αεροδρόμιο "Διονύσιος Σολωμός"
Ζάκυνθος - Ιόνιοι Νήσοι - Ελλάδα
Γ.Πλάτ: 37.7500 - Γ.Μήκ: 20.8667 - Υψόμ: 3μ
Απόσταση από το Vouhead Weather: (ΝΝΔ) 362χλμ
Ενημερώθηκε: 16/11/2019 19:50
ΜΗ ΠΡΟΣΦΑΤΟ METAR
Μερικώς νεφελώδης
Μερικώς νεφελώδης
 Άνεμος από Μεταβλητός
Άνεμος: Μεταβλητός 2 km/h
Θερμοκρασία: 17°C
Σημ. Δρόσου: 15°C
Υγρασία: 88%
Βαρόμετρο: 1017 hPa
Σύννεφα: Μερικώς νεφελώδης
Ορατότητα: 10 km
Ανάλυση νέφωσης: Διάσπαρτα νέφη 549 m
Μερικώς νεφελώδης 2134 m
2019/11/16 17:50 LGZA 161750Z VRB01KT 9999 FEW018 SCT070 17/15 Q1017
LBGO - Αεροδρόμιο στη Γκόρνα Οριαχόβιτσα
Γκόρνα Οριαχόβιτσα - Βέλικο Τάρνοβο - Βουλγαρία
Γ.Πλάτ: 43.1500 - Γ.Μήκ: 25.7167 - Υψόμ: 86μ
Απόσταση από το Vouhead Weather: (ΒΑ) 366χλμ
Ενημερώθηκε: 17/11/2019 02:30

 Άνεμος από Μεταβλητός
Άνεμος: Μεταβλητός 2 km/h
Ορατότητα: 1 km
2019/11/17 00:30 LBGO 170030Z AUTO VRB01KT 0750 0650E R/////// FG VV002 09/09 Q1022
 
LGHI - Αεροδρόμιο "Όμηρος"
Χίος - Ιόνιοι Νήσοι - Ελλάδα
Γ.Πλάτ: 38.3167 - Γ.Μήκ: 26.1167 - Υψόμ: 4μ
Απόσταση από το Vouhead Weather: (ΝΑ) 368χλμ
Ενημερώθηκε: 17/11/2019 01:50
Διάσπαρτα νέφη
Διάσπαρτα νέφη
 Άνεμος από calm
Άνεμος: Απνοια
Θερμοκρασία: 12°C
Σημ. Δρόσου: 11°C
Υγρασία: 94%
Βαρόμετρο: 1017 hPa
Σύννεφα: Διάσπαρτα νέφη
Ορατότητα: 10 km
Ανάλυση νέφωσης: Διάσπαρτα νέφη 457 m
2019/11/16 23:50 LGHI 162350Z 00000KT 9999 FEW015 12/11 Q1017
LYPG - Αεροδρόμιο στη Ποντγκόριτσα
Ποντγκόριτσα - Γκολούμποβτσι - Μαυροβούνιο
Γ.Πλάτ: 42.3667 - Γ.Μήκ: 19.2500 - Υψόμ: 43μ
Απόσταση από το Vouhead Weather: (ΒΔ) 369χλμ
Ενημερώθηκε: 17/11/2019 02:30
Κυρίως νεφελώδης
Κυρίως νεφελώδης
 Άνεμος από Μεταβλητός
Άνεμος: Μεταβλητός 4 km/h
Θερμοκρασία: 12°C
Σημ. Δρόσου: 11°C
Υγρασία: 94%
Βαρόμετρο: 1016 hPa
Σύννεφα: Κυρίως νεφελώδης
Ορατότητα: 10 km
Ανάλυση νέφωσης: Διάσπαρτα νέφη 1524 m
Κυρίως νεφελώδης 2438 m
2019/11/17 00:30 LYPG 170030Z VRB02KT 9999 FEW050 BKN080 12/11 Q1016 NOSIG
 
LGSO - Αεροδρόμιο "Δημήτριος Βικέλας"
Σύρος - Νότιο Αιγαίο - Ελλάδα
Γ.Πλάτ: 37.4167 - Γ.Μήκ: 24.9500 - Υψόμ: 72μ
Απόσταση από το Vouhead Weather: (ΝΝΑ) 390χλμ
Ενημερώθηκε: 17/11/2019 02:20

 Άνεμος από ΒΑ
Άνεμος: ΒΑ 15 km/h
Θερμοκρασία: 18°C
Σημ. Δρόσου: 14°C
Υγρασία: 78%
Βαρόμετρο: 1018 hPa
2019/11/17 00:20 LGSO 170020Z AUTO 04008KT //// // ////// 18/14 Q1018 RE//
LGKL - Αεροδρόμιο στη Καλαμάτα(ΒΠΑ)
Καλαμάτα - Πελοπόννησος - Ελλάδα
Γ.Πλάτ: 37.0667 - Γ.Μήκ: 22.0167 - Υψόμ: 8μ
Απόσταση από το Vouhead Weather: (ΝΝΔ) 398χλμ
Ενημερώθηκε: 17/11/2019 02:20

 Άνεμος από Μεταβλητός
Άνεμος: Μεταβλητός 6 km/h
Θερμοκρασία: 13°C
Σημ. Δρόσου: 10°C
Υγρασία: 82%
Βαρόμετρο: 1017 hPa
2019/11/17 00:20 LGKL 170020Z AUTO VRB03KT //// // ////// 13/10 Q1017 RE//
 
LIBY - Αεροδρόμιο στη Σάντα Μαρία ντι Λέουκα
Σάντα Μαρία ντι Λέουκα - Απουλία(Λέτσε) - Ιταλία
Γ.Πλάτ: 39.8167 - Γ.Μήκ: 18.3500 - Υψόμ: 112μ
Απόσταση από το Vouhead Weather: (Δ) 402χλμ
Ενημερώθηκε: 16/11/2019 18:55
ΜΗ ΠΡΟΣΦΑΤΟ METAR
Μερικώς νεφελώδης
Μερικώς νεφελώδης
 Άνεμος από ΒΒΑ
Άνεμος: ΒΒΑ 17 km/h
Θερμοκρασία: 18°C
Σημ. Δρόσου: 16°C
Υγρασία: 88%
Βαρόμετρο: 1014 hPa
Σύννεφα: Μερικώς νεφελώδης
Ορατότητα: 10 km
Ανάλυση νέφωσης: Μερικώς νεφελώδης 610 m
2019/11/16 16:55 LIBY 161655Z 02009KT 9999 SCT020 18/16 Q1014 RMK BKN SCT070 QUK / QUL / VIS MAR 10 KM VIS MIN 9999
LGMK - Αεροδρόμιο στη Μύκονο
Μύκονος - Νότιο Αιγαίο - Ελλάδα
Γ.Πλάτ: 37.4333 - Γ.Μήκ: 25.3500 - Υψόμ: 123μ
Απόσταση από το Vouhead Weather: (ΝΝΑ) 404χλμ
Ενημερώθηκε: 16/11/2019 19:50
ΜΗ ΠΡΟΣΦΑΤΟ METAR
Διάσπαρτα νέφη
Διάσπαρτα νέφη
 Άνεμος από Β
Άνεμος: Β 22 km/h
Θερμοκρασία: 18°C
Σημ. Δρόσου: 13°C
Υγρασία: 73%
Βαρόμετρο: 1018 hPa
Σύννεφα: Διάσπαρτα νέφη
Ορατότητα: 10 km
Ανάλυση νέφωσης: Διάσπαρτα νέφη 244 m
2019/11/16 17:50 LGMK 161750Z 01012KT 9999 FEW008 18/13 Q1018
 
LYTV - Αεροδρόμιο στο Τιβάτ
Τιβάτ - Τιβάτ - Μαυροβούνιο
Γ.Πλάτ: 42.3833 - Γ.Μήκ: 18.7167 - Υψόμ: 5μ
Απόσταση από το Vouhead Weather: (ΔΒΔ) 408χλμ
Ενημερώθηκε: 17/11/2019 02:30
Μερικώς νεφελώδης
Μερικώς νεφελώδης
 Άνεμος από calm
Άνεμος: Απνοια
Θερμοκρασία: 14°C
Σημ. Δρόσου: 13°C
Υγρασία: 94%
Βαρόμετρο: 1015 hPa
Σύννεφα: Μερικώς νεφελώδης
Ορατότητα: 10 km
Ανάλυση νέφωσης: Διάσπαρτα νέφη 1829 m
Μερικώς νεφελώδης 2438 m
2019/11/17 00:30 LYTV 170030Z 00000KT 9999 FEW060 SCT080 14/13 Q1015
LIBN - Αεροδρόμιο στη Γκαλατίνα(ΒΠΑ)
Γκαλατίνα - Απουλία(Λέτσε) - Ιταλία
Γ.Πλάτ: 40.2167 - Γ.Μήκ: 18.1333 - Υψόμ: 61μ
Απόσταση από το Vouhead Weather: (Δ) 412χλμ
Ενημερώθηκε: 17/11/2019 01:55
Διάσπαρτα νέφη
Διάσπαρτα νέφη
 Άνεμος από ΝΑ
Άνεμος: ΝΑ 9 km/h
Θερμοκρασία: 16°C
Σημ. Δρόσου: 14°C
Υγρασία: 88%
Βαρόμετρο: 1014 hPa
Σύννεφα: Διάσπαρτα νέφη
Ορατότητα: 10 km
Ανάλυση νέφωσης: Διάσπαρτα νέφη 914 m
2019/11/16 23:55 LIBN 162355Z 14005KT 9999 FEW030 16/14 Q1014 RMK SCT SCT200 VIS MIN 9999 WIND THR14 13005KT WIND THR32 14006KT BLU
 
LYKV - Αεροδρόμιο στο Κράλιεβο & Λάντεβτσι
Κράλιεβο(Όμπρβα) - Σουμαντίγια και Δ. Σερβία - Σερβία
Γ.Πλάτ: 43.8167 - Γ.Μήκ: 20.5833 - Υψόμ: 209μ
Απόσταση από το Vouhead Weather: (ΒΒΔ) 412χλμ
Ενημερώθηκε: 17/11/2019 02:00
Αίθριος
Αίθριος
 Άνεμος από ΑΝΑ
Άνεμος: ΑΝΑ 19 km/h
Θερμοκρασία: 14°C
Σημ. Δρόσου: 10°C
Υγρασία: 77%
Βαρόμετρο: 1017 hPa
Περίληψη: Αίθριος
Ορατότητα: Μεγαλύτερη από 10 km
2019/11/17 00:00 LYKV 170000Z 12010KT 100V160 CAVOK 14/10 Q1017 NOSIG
LTBU - Αεροδρόμιο στο Τσορλού(ΒΠΑ)
Τσορλού - Μαρμαράς(Τεκιρντάγ-Ραιδεστός) - Τουρκία
Γ.Πλάτ: 41.1167 - Γ.Μήκ: 27.9167 - Υψόμ: 173μ
Απόσταση από το Vouhead Weather: (Α) 420χλμ
Ενημερώθηκε: 17/11/2019 02:20
Αίθριος
Αίθριος
 Άνεμος από ΒΒΑ
Άνεμος: ΒΒΑ 19 km/h
Θερμοκρασία: 14°C
Σημ. Δρόσου: 13°C
Υγρασία: 94%
Βαρόμετρο: 1020 hPa
Περίληψη: Αίθριος
Ορατότητα: Μεγαλύτερη από 10 km
2019/11/17 00:20 LTBU 170020Z 02010KT CAVOK 14/13 Q1020
 
LRCV - Αεροδρόμιο στη Κραϊόβα
Κραϊόβα - Δολζ - Ρουμανία
Γ.Πλάτ: 44.3167 - Γ.Μήκ: 23.8833 - Υψόμ: 191μ
Απόσταση από το Vouhead Weather: (Β) 424χλμ
Ενημερώθηκε: 17/11/2019 02:30
Ομίχλη, Νεφοσκεπής
Ομίχλη, Νεφοσκεπής
 Άνεμος από Α
Άνεμος: Α 7 km/h
Θερμοκρασία: 9°C
Ψυχρότητα Ανέμου: 8°C
Σημ. Δρόσου: 9°C
Υγρασία: 100%
Βαρόμετρο: 1022 hPa
Περίληψη: Ομίχλη
Σύννεφα: Νεφοσκεπής
Ορατότητα: 2 km
Ανάλυση νέφωσης: Κυρίως νεφελώδης 30 m
Νεφοσκεπής 91 m
2019/11/17 00:30 LRCV 170030Z AUTO 10004KT 1900 R09/1300U FG BKN001/// OVC003/// 09/09 Q1022
LIBR - Αεροδρόμιο στο Μπρίντιζι
(Ανεπίσημο όνομα αεροδρομίου: Ντελ Σαλέντο)
Μπρίντιζι(Πάπολα-Καζάλε) - Απουλία(Μπρίντιζι) - Ιταλία
Γ.Πλάτ: 40.6500 - Γ.Μήκ: 17.9500 - Υψόμ: 10μ
Απόσταση από το Vouhead Weather: (Δ) 424χλμ
Ενημερώθηκε: 17/11/2019 02:20
Αίθριος
Αίθριος
 Άνεμος από ΝΑ
Άνεμος: ΝΑ 19 km/h
Θερμοκρασία: 17°C
Σημ. Δρόσου: 14°C
Υγρασία: 83%
Βαρόμετρο: 1013 hPa
Περίληψη: Αίθριος
Ορατότητα: Μεγαλύτερη από 10 km
2019/11/17 00:20 LIBR 170020Z 14010KT CAVOK 17/14 Q1013
 
LBBG - Αεροδρόμιο στo Μπουργκάς
Μπουργκάς(Σαράφοβο) - Μπουργκάς - Βουλγαρία
Γ.Πλάτ: 42.5000 - Γ.Μήκ: 27.4833 - Υψόμ: 28μ
Απόσταση από το Vouhead Weather: (ΑΒΑ) 432χλμ
Ενημερώθηκε: 17/11/2019 02:30
Κυρίως νεφελώδης
Κυρίως νεφελώδης
 Άνεμος από ΑΒΑ
Άνεμος: ΑΒΑ 17 km/h
Θερμοκρασία: 13°C
Σημ. Δρόσου: 13°C
Υγρασία: 100%
Βαρόμετρο: 1022 hPa
Σύννεφα: Κυρίως νεφελώδης
Ορατότητα: 7 km
Ανάλυση νέφωσης: Κυρίως νεφελώδης 457 m
2019/11/17 00:30 LBBG 170030Z 06009KT 7000 BKN015 13/13 Q1022 NOSIG
LGPA - Αεροδρόμιο "Παντελαίειο"
Πάρος - Νότιο Αιγαίο - Ελλάδα
Γ.Πλάτ: 37.0000 - Γ.Μήκ: 25.0667 - Υψόμ: 36μ
Απόσταση από το Vouhead Weather: (ΝΝΑ) 436χλμ
Ενημερώθηκε: 17/11/2019 02:20

 Άνεμος από ΒΑ
Άνεμος: ΒΑ 17 km/h
Θερμοκρασία: 18°C
Σημ. Δρόσου: 16°C
Υγρασία: 88%
Βαρόμετρο: 1017 hPa
2019/11/17 00:20 LGPA 170020Z AUTO 05009KT //// // ////// 18/16 Q1017 RE//
 
LGNX - Αεροδρόμιο στη Νάξο
Νάξος - Νότιο Αιγαίο - Ελλάδα
Γ.Πλάτ: 37.0833 - Γ.Μήκ: 25.3667 - Υψόμ: 4μ
Απόσταση από το Vouhead Weather: (ΝΝΑ) 439χλμ
Ενημερώθηκε: 15/11/2019 15:50
ΜΗ ΠΡΟΣΦΑΤΟ METAR
Διάσπαρτα νέφη
Διάσπαρτα νέφη
 Άνεμος από ΒΔ
Άνεμος: ΒΔ 13 km/h
Θερμοκρασία: 21°C
Σημ. Δρόσου: 14°C
Υγρασία: 64%
Βαρόμετρο: 1017 hPa
Σύννεφα: Διάσπαρτα νέφη
Ορατότητα: 10 km
Ανάλυση νέφωσης: Διάσπαρτα νέφη 762 m
2019/11/15 13:50 LGNX 151350Z 31007KT 9999 FEW025 21/14 Q1017
LTBJ - Αεροδρόμιο "Αντνάν Μεντερές"
Σμύρνη - Αιγαίο(Σμύρνη) - Τουρκία
Γ.Πλάτ: 38.2667 - Γ.Μήκ: 27.1333 - Υψόμ: 120μ
Απόσταση από το Vouhead Weather: (ΝΑ) 439χλμ
Ενημερώθηκε: 17/11/2019 02:20
Αίθριος
Αίθριος
 Άνεμος από Β
Άνεμος: Β 2 km/h
Θερμοκρασία: 11°C
Σημ. Δρόσου: 9°C
Υγρασία: 88%
Βαρόμετρο: 1018 hPa
Περίληψη: Αίθριος
Ορατότητα: Μεγαλύτερη από 10 km
2019/11/17 00:20 LTBJ 170020Z 36001KT CAVOK 11/09 Q1018 NOSIG
 
LDDU - Αεροδρόμιο στο Ντουμπρόβνικ
Ντουμπρόβνικ - Ντουμπρόβνικ Νερέτβα - Κροατία
Γ.Πλάτ: 42.5667 - Γ.Μήκ: 18.2667 - Υψόμ: 165μ
Απόσταση από το Vouhead Weather: (ΔΒΔ) 450χλμ
Ενημερώθηκε: 17/11/2019 02:30
Κυρίως νεφελώδης
Κυρίως νεφελώδης
 Άνεμος από ΑΝΑ
Άνεμος: ΑΝΑ 26 km/h
Θερμοκρασία: 18°C
Σημ. Δρόσου: 12°C
Υγρασία: 68%
Βαρόμετρο: 1015 hPa
Σύννεφα: Κυρίως νεφελώδης
Ορατότητα: 10 km
Ανάλυση νέφωσης: Διάσπαρτα νέφη 1006 m
Κυρίως νεφελώδης 1524 m
2019/11/17 00:30 LDDU 170030Z 12014KT 9999 FEW033 BKN050 18/12 Q1015
LYUZ - Αεροδρόμιο στην Ούζιτσε & Πόνικβε
(Ανεπίσημο όνομα αεροδρομίου: Λέπα Γκλάβα)
Ούζιτσε - Σουμαντίγια και Δ. Σερβία - Σερβία
Γ.Πλάτ: 43.9000 - Γ.Μήκ: 19.7000 - Υψόμ: 904μ
Απόσταση από το Vouhead Weather: (ΒΔ) 458χλμ
Ενημερώθηκε: 17/11/2019 02:30
Αίθριος
Αίθριος
 Άνεμος από ΑΝΑ
Άνεμος: ΑΝΑ 15 km/h
Θερμοκρασία: 9°C
Ψυχρότητα Ανέμου: 7°C
Σημ. Δρόσου: 5°C
Υγρασία: 76%
Βαρόμετρο: 1017 hPa
Περίληψη: Αίθριος
Ορατότητα: Μεγαλύτερη από 10 km
2019/11/17 00:30 LYUZ 170030Z AUTO 11008KT CAVOK 09/05 Q1017
 
LGSM - Αεροδρόμιο "Αρίσταρχος ο Σάμιος"
Σάμος - Βόρειο Αιγαίο - Ελλάδα
Γ.Πλάτ: 37.6833 - Γ.Μήκ: 26.9167 - Υψόμ: 6μ
Απόσταση από το Vouhead Weather: (ΝΑ) 467χλμ
Ενημερώθηκε: 16/11/2019 19:50
ΜΗ ΠΡΟΣΦΑΤΟ METAR
Αίθριος
Αίθριος
 Άνεμος από Β
Άνεμος: Β 6 km/h
Θερμοκρασία: 19°C
Σημ. Δρόσου: 13°C
Υγρασία: 68%
Βαρόμετρο: 1017 hPa
Περίληψη: Αίθριος
Ορατότητα: Μεγαλύτερη από 10 km
2019/11/16 17:50 LGSM 161750Z 36003KT CAVOK 19/13 Q1017
LIBG - Αεροδρόμιο "Μαρτσέλο Αρλόττα"
Μουντιάζι(Ταράντο-Γκροτάλιε)-Απουλία(Ταράντο)-Ιταλία
Γ.Πλάτ: 40.5167 - Γ.Μήκ: 17.3833 - Υψόμ: 69μ
Απόσταση από το Vouhead Weather: (Δ) 472χλμ
Ενημερώθηκε: 16/11/2019 20:50
ΜΗ ΠΡΟΣΦΑΤΟ METAR
Αίθριος
Αίθριος
 Άνεμος από ΝΝΑ
Άνεμος: ΝΝΑ 19 km/h
Θερμοκρασία: 18°C
Σημ. Δρόσου: 16°C
Υγρασία: 88%
Βαρόμετρο: 1013 hPa
Περίληψη: Αίθριος
Ορατότητα: Μεγαλύτερη από 10 km
2019/11/16 18:50 LIBG 161850Z 15010KT CAVOK 18/16 Q1013
 
LGKC - Αεροδρόμιο στα Κύθηρα
Κύθηρα(Επτάνησα) - Αττική(Νήσοι) - Ελλάδα
Γ.Πλάτ: 36.2833 - Γ.Μήκ: 23.0167 - Υψόμ: 319μ
Απόσταση από το Vouhead Weather: (Ν) 476χλμ
Ενημερώθηκε: 15/11/2019 13:50
ΜΗ ΠΡΟΣΦΑΤΟ METAR
Διάσπαρτα νέφη
Διάσπαρτα νέφη
 Άνεμος από ΔΝΔ
Άνεμος: ΔΝΔ 15 km/h
Θερμοκρασία: 20°C
Σημ. Δρόσου: 15°C
Υγρασία: 73%
Βαρόμετρο: 1019 hPa
Σύννεφα: Διάσπαρτα νέφη
Ορατότητα: 10 km
Ανάλυση νέφωσης: Διάσπαρτα νέφη 549 m
2019/11/15 11:50 LGKC 151150Z 25008KT 9999 FEW018 20/15 Q1019
LTBA - Αεροδρόμιο "Ατατούρκ"
Κωνσταντινούπολη - Μαρμαράς(Κων/πολη) - Τουρκία
Γ.Πλάτ: 40.9667 - Γ.Μήκ: 28.8167 - Υψόμ: 37μ
Απόσταση από το Vouhead Weather: (Α) 494χλμ
Ενημερώθηκε: 17/11/2019 02:20
Αίθριος
Αίθριος
 Άνεμος από ΒΒΑ
Άνεμος: ΒΒΑ 15 km/h
Θερμοκρασία: 16°C
Σημ. Δρόσου: 14°C
Υγρασία: 88%
Βαρόμετρο: 1020 hPa
Περίληψη: Αίθριος
Ορατότητα: Μεγαλύτερη από 10 km
2019/11/17 00:20 LTBA 170020Z 03008KT CAVOK 16/14 Q1020 NOSIG
   Μην χρησιμοποιήσετε τα στοιχεία για αποφάσεις που αφορούν ζωές και πάσης φύσεως ιδιοκτησίες  
ΠΗΓΑΙΝΕΤΕ ΣΤΗΝ ΙΟΝΙΑ ΠΗΓΑΙΝΕΤΕ ΣΤΗΝ ΡΕΑ ΠΗΓΑΙΝΕΤΕ ΣΤΗΝ ΚΗΦΙΣΙΑ ΠΗΓΑΙΝΕΤΕ ΣΤΗΝ ΣΥΡΟ ΠΗΓΑΙΝΕΤΕ ΣΤΗΝ ΔΕΞΑΜΕΝΗ (BOLTEK) ΠΗΓΑΙΝΕΤΕ ΣΤΗΝ ΔΕΞΑΜΕΝΗ (LR) Γενική Γραμματεία Πολιτικής Προστασίας Ενιαίος Ευρωπαϊκός Αριθμός Έκτακτης Ανάγκης Βίντεο για το Καστελλόριζο(Μεγίστη) από τα αρχεία της ΕΡΤ Ιστοσελίδα Δήμου Μεγίστης Δείτε το μεγαλύτερο